Time;durP1;ratioP1;P1;durP2;ratioP2;P2;SDS_P1;SDS_P2;PMS_P1;PMS_P2;Temp;Humidity;BMP_temperature;BMP_pressure;BME280_temperature;BME280_humidity;BME280_pressure;Samples;Min_cycle;Max_cycle;Signal;HPM_P1;HPM_P2
2023/08/20 00:01:58;;;;;;;7.25;5.40;;;;;;;22.55;67.35;65364.25;5050001;28;20695;-58
2023/08/20 00:04:26;;;;;;;6.80;5.03;;;;;;;22.51;67.89;65359.84;5049764;28;20729;-55
2023/08/20 00:06:52;;;;;;;6.07;5.05;;;;;;;22.48;66.98;65359.09;5031931;28;20304;-58
2023/08/20 00:09:17;;;;;;;8.27;5.22;;;;;;;22.60;66.70;65369.81;5049889;28;20219;-53
2023/08/20 00:11:42;;;;;;;6.57;5.20;;;;;;;22.53;67.79;65362.03;5049727;28;20224;-54
2023/08/20 00:14:16;;;;;;;7.10;5.15;;;;;;;22.54;68.12;65363.16;5049633;28;20201;-55
2023/08/20 00:16:42;;;;;;;10.20;6.22;;;;;;;22.61;67.99;65370.38;5049847;28;20225;-59
2023/08/20 00:19:08;;;;;;;6.55;5.53;;;;;;;22.59;68.25;65365.59;5049488;28;20213;-55
2023/08/20 00:21:35;;;;;;;7.32;5.20;;;;;;;22.60;67.81;65369.81;5049643;28;20217;-55
2023/08/20 00:24:00;;;;;;;7.22;5.72;;;;;;;22.70;67.24;65377.78;5031588;28;20201;-55
2023/08/20 00:26:26;;;;;;;8.02;5.90;;;;;;;22.72;66.62;65380.00;5049421;28;20220;-56
2023/08/20 00:28:52;;;;;;;9.32;5.57;;;;;;;22.58;68.44;65364.50;5049483;28;20217;-55
2023/08/20 00:31:17;;;;;;;6.63;4.97;;;;;;;22.61;67.63;65367.78;5049287;28;20233;-56
2023/08/20 00:33:43;;;;;;;6.35;5.57;;;;;;;22.60;67.22;65369.81;5049419;28;20555;-61
2023/08/20 00:36:09;;;;;;;8.77;5.55;;;;;;;22.51;68.17;65357.25;5049310;28;20235;-56
2023/08/20 00:38:34;;;;;;;7.75;6.00;;;;;;;22.56;67.63;65363.34;5049351;28;20263;-54
2023/08/20 00:41:00;;;;;;;7.20;6.00;;;;;;;22.64;66.63;65371.13;5049164;28;20197;-55
2023/08/20 00:43:25;;;;;;;7.30;5.50;;;;;;;22.63;66.65;65370.00;5031341;28;20209;-54
2023/08/20 00:45:51;;;;;;;9.13;6.00;;;;;;;22.38;67.64;65345.44;5031176;28;20297;-54
2023/08/20 00:48:17;;;;;;;6.80;5.65;;;;;;;22.11;69.35;65315.56;5052812;28;20236;-55
2023/08/20 00:50:43;;;;;;;7.60;5.45;;;;;;;22.31;68.61;65340.81;5052680;28;20194;-56
2023/08/20 00:53:11;;;;;;;9.23;5.80;;;;;;;22.23;69.60;65326.28;5052509;28;20205;-56
2023/08/20 00:55:37;;;;;;;6.53;5.65;;;;;;;22.22;69.12;65325.16;5052393;28;20270;-55
2023/08/20 00:58:03;;;;;;;10.55;6.38;;;;;;;22.27;69.66;65333.25;5052351;28;20205;-56
2023/08/20 01:00:29;;;;;;;7.68;5.75;;;;;;;22.29;69.71;65335.47;5052520;28;20300;-54
2023/08/20 01:02:54;;;;;;;6.63;5.57;;;;;;;22.26;69.31;65334.75;5052617;28;20700;-55
2023/08/20 01:05:20;;;;;;;9.07;6.20;;;;;;;22.26;69.00;65332.72;5052491;28;20270;-53
2023/08/20 01:08:23;;;;;;;6.55;5.63;;;;;;;22.22;69.95;65325.72;5052235;28;20216;-54
2023/08/20 01:10:56;;;;;;;7.07;5.50;;;;;;;22.20;70.06;65323.50;5052013;28;20571;-55
2023/08/20 01:13:21;;;;;;;11.98;6.72;;;;;;;22.18;70.22;65325.88;5052271;28;20193;-55
2023/08/20 01:15:47;;;;;;;5.72;5.13;;;;;;;22.09;70.62;65315.91;5052086;28;20259;-54
2023/08/20 01:18:12;;;;;;;6.77;6.13;;;;;;;22.15;70.54;65317.41;5052077;28;20204;-54
2023/08/20 01:20:47;;;;;;;8.30;5.85;;;;;;;22.14;70.55;65318.88;5052234;28;20433;-55
2023/08/20 01:24:05;;;;;;;6.32;5.70;;;;;;;22.22;70.30;65325.72;5052261;28;20371;-54
2023/08/20 01:27:14;;;;;;;11.13;6.47;;;;;;;22.21;70.21;65327.19;5010279;28;20355;-54
2023/08/20 01:29:40;;;;;;;8.63;6.20;;;;;;;22.16;70.69;65321.09;5051960;28;20190;-54
2023/08/20 01:32:07;;;;;;;8.10;6.25;;;;;;;22.23;70.54;65331.97;5051836;28;20688;-55
2023/08/20 01:34:33;;;;;;;6.20;5.60;;;;;;;22.25;70.70;65331.06;5052057;28;20641;-52
2023/08/20 01:36:59;;;;;;;7.68;5.78;;;;;;;22.12;71.65;65317.22;5051952;28;20292;-52
2023/08/20 01:39:24;;;;;;;7.47;6.30;;;;;;;22.15;70.97;65319.97;5033954;28;20217;-51
2023/08/20 01:41:50;;;;;;;7.32;6.18;;;;;;;22.08;71.26;65312.78;5052114;28;20676;-54
2023/08/20 01:44:15;;;;;;;7.30;6.10;;;;;;;22.09;71.49;65313.34;5051794;28;20672;-50
2023/08/20 01:46:41;;;;;;;7.45;5.93;;;;;;;22.06;71.70;65304.91;5051794;28;20248;-51
2023/08/20 01:49:07;;;;;;;10.23;6.63;;;;;;;22.21;71.59;65326.63;5051746;28;20684;-51
2023/08/20 01:51:32;;;;;;;8.13;6.78;;;;;;;22.17;70.83;65324.75;5051542;28;20213;-51
2023/08/20 01:53:59;;;;;;;7.85;6.03;;;;;;;22.25;70.97;65329.03;5033657;28;20216;-51
2023/08/20 01:56:24;;;;;;;6.95;6.05;;;;;;;22.06;71.90;65307.47;5051424;28;20223;-56
2023/08/20 01:58:49;;;;;;;8.15;6.95;;;;;;;22.14;71.90;65319.44;5050980;28;20294;-55
2023/08/20 02:01:15;;;;;;;7.65;6.78;;;;;;;22.12;71.08;65319.25;5051321;28;20695;-60
2023/08/20 02:03:40;;;;;;;11.23;6.43;;;;;;;21.94;72.18;65294.19;5051556;28;20217;-52
2023/08/20 02:06:06;;;;;;;10.95;6.93;;;;;;;21.79;73.29;65280.13;5051772;28;20213;-51
2023/08/20 02:08:31;;;;;;;8.45;6.57;;;;;;;21.81;73.53;65282.34;5051534;28;20205;-54
2023/08/20 02:11:01;;;;;;;10.43;6.72;;;;;;;21.88;73.51;65290.09;5051643;28;20206;-55
2023/08/20 02:13:27;;;;;;;11.20;7.22;;;;;;;21.88;73.29;65287.53;5051603;28;20220;-57
2023/08/20 02:16:03;;;;;;;7.97;6.30;;;;;;;21.97;73.19;65303.19;5051315;28;20695;-55
2023/08/20 02:18:29;;;;;;;10.68;7.30;;;;;;;22.05;72.42;65308.91;5051295;28;20204;-53
2023/08/20 02:20:55;;;;;;;9.40;6.63;;;;;;;22.02;72.74;65306.16;5051287;28;20193;-53
2023/08/20 02:23:20;;;;;;;8.00;7.20;;;;;;;22.02;72.63;65305.59;5051311;28;20207;-53
2023/08/20 02:25:47;;;;;;;7.53;6.70;;;;;;;22.04;72.87;65307.81;5051079;28;20205;-54
2023/08/20 02:28:12;;;;;;;9.73;6.30;;;;;;;22.07;72.58;65311.13;5051072;28;20284;-55
2023/08/20 02:30:42;;;;;;;7.95;6.80;;;;;;;21.97;72.72;65300.06;5051086;28;20562;-56
2023/08/20 02:33:08;;;;;;;10.40;7.13;;;;;;;22.03;72.92;65304.13;5051439;28;20216;-54
2023/08/20 02:35:34;;;;;;;9.57;6.53;;;;;;;22.02;72.53;65306.16;5033217;28;20263;-55
2023/08/20 02:38:00;;;;;;;7.75;6.15;;;;;;;21.92;72.35;65297.09;5050844;28;20209;-56
2023/08/20 02:40:25;;;;;;;8.40;6.97;;;;;;;21.85;73.38;65286.78;5050882;28;20232;-55
2023/08/20 02:42:50;;;;;;;7.75;6.53;;;;;;;21.77;73.63;65277.91;5050797;28;20221;-54
2023/08/20 02:45:16;;;;;;;11.18;7.13;;;;;;;21.80;74.28;65278.66;5032990;28;20189;-56
2023/08/20 02:47:41;;;;;;;8.77;6.60;;;;;;;21.87;74.34;65289.00;5050767;28;20214;-55
2023/08/20 02:50:07;;;;;;;6.93;6.25;;;;;;;21.75;74.07;65274.22;5050824;28;20695;-54
2023/08/20 02:52:33;;;;;;;9.55;6.03;;;;;;;21.79;74.26;65280.69;5033113;28;20217;-55
2023/08/20 02:54:58;;;;;;;7.68;6.80;;;;;;;21.96;73.08;65301.53;5050484;28;20688;-55
2023/08/20 02:57:24;;;;;;;8.07;6.47;;;;;;;21.93;72.85;65293.63;5050915;28;20301;-55
2023/08/20 02:59:50;;;;;;;10.20;7.38;;;;;;;21.87;71.74;65289.00;5050415;28;20594;-53
2023/08/20 03:02:15;;;;;;;9.98;6.78;;;;;;;21.73;73.06;65274.03;5050828;28;20237;-55
2023/08/20 03:04:41;;;;;;;9.68;7.15;;;;;;;21.64;74.23;65267.19;5050565;28;20568;-54
2023/08/20 03:07:07;;;;;;;8.75;6.60;;;;;;;21.62;73.20;65259.84;5057847;22;20770;-54
2023/08/20 03:09:33;;;;;;;7.38;6.65;;;;;;;21.47;74.56;65243.25;5031731;28;20208;-54
2023/08/20 03:11:58;;;;;;;8.80;6.60;;;;;;;21.33;75.38;65232.91;5050378;28;20222;-54
2023/08/20 03:14:23;;;;;;;13.07;6.50;;;;;;;21.27;75.74;65223.16;5032370;28;20198;-54
2023/08/20 03:16:49;;;;;;;10.10;6.40;;;;;;;21.29;75.18;65228.47;5050263;28;20206;-55
2023/08/20 03:19:15;;;;;;;8.50;7.00;;;;;;;21.31;75.32;65230.16;5032350;28;20300;-54
2023/08/20 03:21:41;;;;;;;10.60;6.47;;;;;;;21.23;75.67;65216.72;5050052;28;20217;-55
2023/08/20 03:24:07;;;;;;;11.70;7.10;;;;;;;21.21;75.65;65216.53;5050505;28;20599;-56
2023/08/20 03:26:33;;;;;;;8.05;6.00;;;;;;;21.20;75.71;65215.97;5049719;28;20213;-54
2023/08/20 03:28:59;;;;;;;7.18;6.47;;;;;;;21.13;75.90;65210.78;5050182;28;20683;-54
2023/08/20 03:31:24;;;;;;;7.65;6.28;;;;;;;21.04;76.31;65200.84;5049982;28;20775;-54
2023/08/20 03:33:50;;;;;;;10.57;6.68;;;;;;;20.93;76.77;65184.09;5050020;28;20273;-54
2023/08/20 03:36:15;;;;;;;9.70;6.32;;;;;;;20.84;77.19;65176.72;5050018;28;20212;-54
2023/08/20 03:38:41;;;;;;;7.63;5.90;;;;;;;20.87;77.93;65182.00;5050030;28;20690;-56
2023/08/20 03:41:07;;;;;;;7.88;6.22;;;;;;;21.06;76.81;65200.50;5050248;28;20723;-55
2023/08/20 03:43:32;;;;;;;6.75;6.05;;;;;;;21.03;77.33;65194.06;5049993;28;20209;-54
2023/08/20 03:45:58;;;;;;;6.82;6.03;;;;;;;20.98;78.22;65191.06;5049888;28;20205;-54
2023/08/20 03:48:24;;;;;;;8.68;6.97;;;;;;;21.05;77.90;65196.28;5050261;28;20676;-54
2023/08/20 03:50:50;;;;;;;12.07;9.40;;;;;;;21.01;77.90;65197.50;5050043;28;20205;-55
2023/08/20 03:53:15;;;;;;;9.35;6.43;;;;;;;21.11;77.06;65208.03;5049750;28;20247;-53
2023/08/20 03:55:41;;;;;;;8.90;6.75;;;;;;;21.08;77.51;65205.25;5050117;28;20255;-55
2023/08/20 03:58:07;;;;;;;7.57;6.03;;;;;;;21.30;76.52;65226.47;5049899;28;20664;-58
2023/08/20 04:00:34;;;;;;;14.02;9.77;;;;;;;21.20;76.81;65215.41;5049924;28;20213;-55
2023/08/20 04:03:00;;;;;;;6.82;5.95;;;;;;;21.31;75.48;65227.59;5049959;28;20675;-55
2023/08/20 04:05:25;;;;;;;9.18;6.15;;;;;;;21.37;75.72;65234.22;5049845;28;20208;-55
2023/08/20 04:07:51;;;;;;;6.55;5.80;;;;;;;21.31;76.30;65227.59;5049836;28;20220;-55
2023/08/20 04:10:16;;;;;;;9.63;6.13;;;;;;;21.47;75.94;65245.81;5031836;28;20572;-55
2023/08/20 04:12:42;;;;;;;9.20;6.90;;;;;;;21.38;75.92;65233.31;5049573;28;20209;-59
2023/08/20 04:15:07;;;;;;;8.85;5.95;;;;;;;21.32;74.72;65231.81;5049561;28;20210;-54
2023/08/20 04:17:33;;;;;;;6.00;5.38;;;;;;;20.97;76.93;65189.97;5049507;28;20712;-54
2023/08/20 04:19:58;;;;;;;7.10;5.70;;;;;;;21.15;75.90;65207.88;5049829;28;20296;-55
2023/08/20 04:22:25;;;;;;;6.05;5.20;;;;;;;21.07;76.17;65203.63;5053152;28;20710;-54
2023/08/20 04:24:50;;;;;;;6.28;5.75;;;;;;;20.93;77.32;65186.09;5053094;28;20181;-55
2023/08/20 04:27:16;;;;;;;9.07;6.03;;;;;;;20.82;77.64;65173.94;5053096;28;20703;-60
2023/08/20 04:29:41;;;;;;;7.53;5.10;;;;;;;20.79;77.96;65168.03;5053119;28;20627;-59
2023/08/20 04:32:07;;;;;;;8.88;5.75;;;;;;;20.73;78.55;65163.97;5053355;28;20214;-56
2023/08/20 04:34:33;;;;;;;7.65;5.45;;;;;;;20.78;78.17;65172.06;5052887;28;20734;-54
2023/08/20 04:36:58;;;;;;;6.63;5.95;;;;;;;20.69;78.44;65159.56;5053268;28;20215;-55
2023/08/20 04:39:24;;;;;;;7.07;6.28;;;;;;;20.68;79.49;65159.03;5052724;28;20651;-56
2023/08/20 04:41:49;;;;;;;7.82;5.80;;;;;;;20.68;79.79;65158.47;5052683;28;20292;-53
2023/08/20 04:44:15;;;;;;;9.05;6.30;;;;;;;20.89;78.32;65181.66;5052680;28;20304;-55
2023/08/20 04:46:42;;;;;;;7.93;5.65;;;;;;;20.96;77.40;65189.41;5052463;28;20253;-54
2023/08/20 04:49:08;;;;;;;9.15;5.53;;;;;;;20.93;77.66;65183.53;5052556;28;20295;-54
2023/08/20 04:51:34;;;;;;;6.40;5.80;;;;;;;20.95;77.68;65185.19;5052951;28;20224;-55
2023/08/20 04:53:59;;;;;;;5.57;5.07;;;;;;;20.96;77.74;65191.97;5052499;28;20190;-58
2023/08/20 04:56:24;;;;;;;6.68;5.57;;;;;;;20.88;78.38;65181.13;5052332;28;20216;-54
2023/08/20 04:58:50;;;;;;;7.10;5.72;;;;;;;20.77;78.73;65166.41;5052438;28;20256;-54
2023/08/20 05:01:16;;;;;;;6.60;5.80;;;;;;;20.94;79.76;65187.19;5052249;28;20209;-54
2023/08/20 05:03:41;;;;;;;6.10;5.50;;;;;;;21.07;77.76;65204.16;5052580;28;20204;-54
2023/08/20 05:06:07;;;;;;;6.90;5.75;;;;;;;21.04;79.03;65195.16;5052255;28;20651;-53
2023/08/20 05:08:32;;;;;;;10.55;5.80;;;;;;;21.02;79.62;65196.06;5052258;28;20229;-55
2023/08/20 05:10:57;;;;;;;8.25;5.93;;;;;;;21.14;79.57;65209.34;5052173;28;20204;-55
2023/08/20 05:13:23;;;;;;;6.13;5.53;;;;;;;21.27;79.67;65223.16;5052296;28;20218;-55
2023/08/20 05:15:49;;;;;;;6.55;5.85;;;;;;;21.37;79.42;65234.22;5052336;28;20200;-54
2023/08/20 05:18:15;;;;;;;7.78;5.88;;;;;;;21.73;77.90;65272.00;5052371;28;20197;-54
2023/08/20 05:20:41;;;;;;;7.40;5.60;;;;;;;21.81;77.94;65279.78;5052378;28;20692;-53
2023/08/20 05:23:07;;;;;;;7.97;5.82;;;;;;;21.63;78.45;65263.53;5059675;22;20281;-55
2023/08/20 05:25:32;;;;;;;7.85;5.40;;;;;;;21.75;78.47;65276.25;5052420;28;20232;-55
2023/08/20 05:27:57;;;;;;;6.82;5.25;;;;;;;22.48;90.78;65353.94;5051779;28;20220;-55
2023/08/20 05:30:23;;;;;;;6.75;5.68;;;;;;;23.41;91.13;65459.03;5051957;28;20192;-54
2023/08/20 05:32:49;;;;;;;7.65;5.50;;;;;;;23.84;84.96;65503.53;5051396;28;20304;-54
2023/08/20 05:35:14;;;;;;;5.97;5.38;;;;;;;23.91;73.30;65511.28;5052022;28;20363;-55
2023/08/20 05:37:40;;;;;;;6.15;5.55;;;;;;;23.84;77.81;65504.09;5051886;28;20729;-56
2023/08/20 05:40:08;;;;;;;13.05;6.90;;;;;;;24.29;77.91;65553.44;5051766;28;20221;-55
2023/08/20 05:42:34;;;;;;;8.85;6.05;;;;;;;24.29;71.98;65553.44;5051856;28;20351;-54
2023/08/20 05:44:59;;;;;;;7.40;6.00;;;;;;;24.05;69.10;65529.97;5051918;28;20250;-56
2023/08/20 05:47:25;;;;;;;6.40;5.72;;;;;;;24.15;76.08;65537.91;5033928;28;20217;-54
2023/08/20 05:49:50;;;;;;;7.38;5.57;;;;;;;24.36;74.58;65563.78;5052317;28;20267;-60
2023/08/20 05:52:15;;;;;;;10.65;6.10;;;;;;;24.37;73.76;65564.91;5034491;28;20300;-55
2023/08/20 05:54:41;;;;;;;6.40;5.40;;;;;;;24.18;72.96;65541.78;5052182;28;20190;-56
2023/08/20 05:57:07;;;;;;;6.82;5.70;;;;;;;23.77;73.82;65498.34;5052199;28;20706;-57
2023/08/20 05:59:33;;;;;;;8.05;6.00;;;;;;;23.43;73.41;65460.69;5051746;28;20243;-56
2023/08/20 06:01:58;;;;;;;7.57;5.65;;;;;;;23.08;76.82;65419.84;5052181;28;20216;-56
2023/08/20 06:04:23;;;;;;;6.72;5.93;;;;;;;22.79;79.89;65390.28;5051925;28;20659;-56
2023/08/20 06:06:49;;;;;;;10.70;6.53;;;;;;;22.82;77.99;65394.19;5051794;28;20279;-57
2023/08/20 06:09:14;;;;;;;7.00;6.30;;;;;;;22.93;73.91;65406.38;5051760;28;20235;-57
2023/08/20 06:11:40;;;;;;;8.50;7.00;;;;;;;22.69;75.63;65382.34;5033639;28;20206;-57
2023/08/20 06:14:05;;;;;;;9.02;6.40;;;;;;;22.56;75.61;65362.81;5051668;28;20591;-57
2023/08/20 06:16:31;;;;;;;8.80;6.22;;;;;;;22.44;79.92;65352.63;5051652;28;20663;-57
2023/08/20 06:18:57;;;;;;;10.82;6.38;;;;;;;22.50;77.65;65358.72;5051529;28;20649;-57
2023/08/20 06:21:23;;;;;;;11.68;7.35;;;;;;;22.30;80.47;65337.13;5051739;28;20213;-57
2023/08/20 06:23:49;;;;;;;9.85;7.25;;;;;;;22.45;82.44;65350.63;5051625;28;20201;-57
2023/08/20 06:26:14;;;;;;;8.00;6.82;;;;;;;22.48;77.72;65356.53;5033772;28;20217;-57
2023/08/20 06:28:40;;;;;;;10.32;6.88;;;;;;;22.75;86.51;65388.44;5051599;28;20521;-56
2023/08/20 06:31:05;;;;;;;9.90;6.63;;;;;;;22.99;77.08;65409.88;5051367;28;20206;-55
2023/08/20 06:33:49;;;;;;;8.38;6.55;;;;;;;22.92;77.03;65407.84;5051648;28;20202;-57
2023/08/20 06:36:15;;;;;;;10.30;7.03;;;;;;;23.27;79.71;65438.88;5051317;28;20201;-58
2023/08/20 06:38:40;;;;;;;10.85;7.72;;;;;;;23.31;76.50;65447.91;5033306;28;20737;-58
2023/08/20 06:41:06;;;;;;;11.05;7.38;;;;;;;23.40;79.16;65454.78;5051029;28;20745;-59
2023/08/20 06:43:31;;;;;;;12.68;7.22;;;;;;;23.60;77.54;65480.06;5033352;28;20660;-57
2023/08/20 06:45:57;;;;;;;11.80;8.13;;;;;;;23.93;76.72;65516.09;5033315;28;20193;-57
2023/08/20 06:48:24;;;;;;;13.27;7.00;;;;;;;23.88;70.01;65507.97;5051342;28;20197;-58
2023/08/20 06:50:50;;;;;;;12.98;8.05;;;;;;;23.83;80.85;65505.00;5051111;28;20284;-56
2023/08/20 06:53:15;;;;;;;15.55;7.22;;;;;;;23.88;72.85;65507.97;5051213;28;20237;-56
2023/08/20 06:55:41;;;;;;;16.90;7.72;;;;;;;23.91;72.80;65516.44;5051186;28;20197;-57
2023/08/20 06:58:06;;;;;;;15.95;10.13;;;;;;;24.01;72.42;65522.38;5051509;28;20216;-61
2023/08/20 07:00:32;;;;;;;12.77;6.47;;;;;;;24.05;70.57;65527.41;5050997;28;20264;-58
2023/08/20 07:02:58;;;;;;;10.35;6.95;;;;;;;24.17;67.64;65540.69;5032880;28;20300;-59
2023/08/20 07:05:23;;;;;;;8.02;6.47;;;;;;;24.30;65.24;65554.00;5050966;28;20339;-58
2023/08/20 07:07:49;;;;;;;8.38;6.15;;;;;;;24.28;64.65;65552.31;5009992;23;20226;-57
2023/08/20 07:10:15;;;;;;;8.80;6.18;;;;;;;24.24;68.61;65544.78;5013347;28;20209;-55
2023/08/20 07:12:40;;;;;;;7.50;6.28;;;;;;;24.41;65.80;65566.75;5030867;28;20210;-57
2023/08/20 07:15:06;;;;;;;8.80;5.85;;;;;;;24.51;64.60;65577.84;5030883;28;20617;-58
2023/08/20 07:17:32;;;;;;;9.35;5.85;;;;;;;24.54;66.42;65581.19;5031047;28;20365;-56
2023/08/20 07:19:58;;;;;;;9.52;5.70;;;;;;;24.77;64.26;65606.16;5030829;28;20225;-58
2023/08/20 07:22:24;;;;;;;6.95;6.03;;;;;;;24.78;63.52;65607.25;5031038;28;20218;-57
2023/08/20 07:24:49;;;;;;;6.68;4.93;;;;;;;24.88;60.44;65624.06;5030767;28;20190;-58
2023/08/20 07:27:14;;;;;;;6.75;5.60;;;;;;;24.99;61.24;65631.09;5030965;28;20677;-57
2023/08/20 07:29:41;;;;;;;5.97;5.38;;;;;;;25.14;61.65;65647.22;5030888;28;20672;-55
2023/08/20 07:32:07;;;;;;;8.23;5.22;;;;;;;25.27;58.91;65659.03;5030716;28;20214;-56
2023/08/20 07:34:34;;;;;;;9.07;6.22;;;;;;;25.24;67.05;65658.31;5012860;28;20655;-57
2023/08/20 07:37:00;;;;;;;7.28;6.15;;;;;;;25.33;68.62;65667.75;5030754;28;20637;-58
2023/08/20 07:39:25;;;;;;;7.28;5.57;;;;;;;25.61;59.72;65701.97;5030430;28;20692;-57
2023/08/20 07:41:52;;;;;;;9.93;5.63;;;;;;;25.65;58.46;65705.88;5030649;28;20218;-58
2023/08/20 07:44:17;;;;;;;10.35;6.13;;;;;;;25.68;58.65;65704.03;5012971;28;20198;-56
2023/08/20 07:46:43;;;;;;;5.45;4.90;;;;;;;25.74;59.27;65716.41;5030388;28;20271;-57
2023/08/20 07:49:08;;;;;;;8.77;5.03;;;;;;;25.91;60.56;65729.56;5030298;28;20680;-57
2023/08/20 07:51:34;;;;;;;8.80;5.80;;;;;;;26.05;58.56;65747.13;5012636;28;20208;-57
2023/08/20 07:54:00;;;;;;;7.63;5.80;;;;;;;26.08;59.96;65747.91;5030627;28;20194;-57
2023/08/20 07:56:33;;;;;;;7.55;5.43;;;;;;;26.12;58.33;65754.94;5035570;28;20244;-58
2023/08/20 07:58:59;;;;;;;8.00;5.30;;;;;;;26.22;57.55;65766.03;5019134;28;20650;-58
2023/08/20 08:01:32;;;;;;;12.32;8.75;;;;;;;26.21;58.94;65765.50;5036880;28;20746;-57
2023/08/20 08:03:58;;;;;;;7.65;5.65;;;;;;;26.34;58.87;65779.91;5036894;28;20200;-57
2023/08/20 08:06:26;;;;;;;5.80;5.22;;;;;;;26.45;55.39;65794.16;5037024;28;20218;-57
2023/08/20 08:08:51;;;;;;;5.22;4.72;;;;;;;26.53;55.46;65800.47;5019020;28;20635;-57
2023/08/20 08:11:16;;;;;;;5.00;4.22;;;;;;;26.66;52.95;65814.38;5036864;28;20697;-58
2023/08/20 08:13:42;;;;;;;5.43;4.82;;;;;;;26.68;53.64;65814.00;5036995;28;20190;-58
2023/08/20 08:16:08;;;;;;;6.28;4.90;;;;;;;26.59;53.04;65804.56;5036406;28;20647;-56
2023/08/20 08:18:34;;;;;;;5.47;4.97;;;;;;;26.63;52.12;65811.59;5036656;28;20687;-57
2023/08/20 08:20:59;;;;;;;12.27;6.20;;;;;;;26.81;52.49;65831.03;5036510;28;20587;-56
2023/08/20 08:23:25;;;;;;;7.30;5.85;;;;;;;26.81;52.24;65833.63;5036716;28;20205;-58
2023/08/20 08:25:51;;;;;;;6.72;5.32;;;;;;;26.88;52.13;65839.41;5036405;28;20202;-57
2023/08/20 08:28:16;;;;;;;8.77;4.90;;;;;;;26.90;51.07;65841.06;5036572;28;20204;-56
2023/08/20 08:30:42;;;;;;;19.88;9.75;;;;;;;26.95;50.55;65844.56;5036630;28;20201;-57
2023/08/20 08:33:07;;;;;;;6.85;5.18;;;;;;;27.05;50.78;65855.16;5036491;28;20226;-57
2023/08/20 08:35:33;;;;;;;6.00;4.45;;;;;;;27.21;48.62;65875.53;5018640;28;20588;-56
2023/08/20 08:37:59;;;;;;;5.60;3.88;;;;;;;27.23;44.45;65877.75;5036491;28;20212;-57
2023/08/20 08:40:29;;;;;;;10.05;7.95;;;;;;;27.08;48.16;65863.66;5036297;28;20260;-57
2023/08/20 08:42:54;;;;;;;16.08;8.85;;;;;;;27.09;47.78;65862.19;5036169;28;20205;-56
2023/08/20 08:45:21;;;;;;;8.52;4.13;;;;;;;27.42;46.23;65899.44;5036057;28;20548;-55
2023/08/20 08:47:47;;;;;;;7.50;5.13;;;;;;;27.58;45.22;65916.69;5036518;28;20285;-56
2023/08/20 08:50:13;;;;;;;10.38;6.05;;;;;;;27.55;45.68;65913.34;5036249;28;20256;-58
2023/08/20 08:52:41;;;;;;;5.30;4.18;;;;;;;27.84;45.02;65943.00;5036385;28;20225;-55
2023/08/20 08:55:08;;;;;;;9.00;5.28;;;;;;;27.90;44.96;65949.66;5036087;28;20193;-57
2023/08/20 08:57:35;;;;;;;6.25;5.45;;;;;;;27.94;43.74;65956.72;5036089;28;20275;-57
2023/08/20 09:00:01;;;;;;;9.38;5.60;;;;;;;27.87;42.88;65951.53;5035954;28;20230;-57
2023/08/20 09:02:27;;;;;;;15.13;5.95;;;;;;;28.02;44.32;65968.22;5035900;28;20210;-58
2023/08/20 09:04:53;;;;;;;6.60;4.72;;;;;;;28.32;43.32;65998.44;5036029;28;20277;-60
2023/08/20 09:07:19;;;;;;;5.13;4.07;;;;;;;28.19;43.07;65984.56;5032926;28;20677;-55
2023/08/20 09:09:46;;;;;;;5.00;4.05;;;;;;;28.64;43.73;66033.53;5032775;28;20209;-56
2023/08/20 09:12:16;;;;;;;5.40;3.83;;;;;;;28.80;41.16;66051.34;5032964;28;20272;-59
2023/08/20 09:14:49;;;;;;;4.78;3.70;;;;;;;28.96;39.27;66066.56;5032466;28;20214;-56
2023/08/20 09:17:15;;;;;;;3.67;3.28;;;;;;;29.05;39.03;66076.56;5032939;28;20719;-56
2023/08/20 09:19:44;;;;;;;6.38;3.60;;;;;;;29.10;39.18;66082.16;5032383;28;20214;-55
2023/08/20 09:22:14;;;;;;;3.88;3.47;;;;;;;29.19;38.82;66091.66;5014570;28;20221;-55
2023/08/20 09:24:44;;;;;;;5.43;4.28;;;;;;;29.36;40.30;66111.13;5032496;28;20252;-55
2023/08/20 09:27:11;;;;;;;4.22;3.83;;;;;;;29.68;39.00;66146.22;5032235;28;20210;-56
2023/08/20 09:29:51;;;;;;;3.90;3.50;;;;;;;29.72;39.37;66148.66;5014443;28;20225;-55
2023/08/20 09:32:19;;;;;;;3.75;3.38;;;;;;;29.98;38.76;66181.72;5032098;28;20226;-57
2023/08/20 09:34:45;;;;;;;3.72;3.40;;;;;;;30.07;37.92;66189.13;5032429;28;20194;-56
2023/08/20 09:37:13;;;;;;;5.00;3.80;;;;;;;29.92;37.14;66169.81;5014384;28;20276;-55
2023/08/20 09:39:39;;;;;;;12.68;9.23;;;;;;;29.76;38.03;66153.09;5032337;28;20206;-55
2023/08/20 09:42:06;;;;;;;8.90;7.93;;;;;;;29.78;37.70;66157.94;5032348;28;20237;-54
2023/08/20 09:44:42;;;;;;;7.80;6.60;;;;;;;30.07;37.48;66191.72;5014478;28;20206;-57
2023/08/20 09:47:13;;;;;;;6.03;4.10;;;;;;;30.42;36.71;66228.69;5032097;28;20229;-55
2023/08/20 09:49:40;;;;;;;12.52;7.63;;;;;;;30.37;36.61;66225.75;5032027;28;20202;-56
2023/08/20 09:52:15;;;;;;;11.05;6.35;;;;;;;30.20;35.42;66203.63;5032001;28;20677;-56
2023/08/20 09:54:55;;;;;;;7.53;2.92;;;;;;;30.84;34.58;66272.41;5032000;28;20205;-55
2023/08/20 09:57:38;;;;;;;10.45;5.70;;;;;;;31.14;35.54;66308.47;5032200;28;20210;-55
2023/08/20 10:00:11;;;;;;;3.05;2.72;;;;;;;31.14;35.18;66305.84;5013872;28;20218;-54
2023/08/20 10:02:37;;;;;;;3.17;2.92;;;;;;;31.21;32.19;66318.88;5014131;28;20217;-54
2023/08/20 10:05:05;;;;;;;3.03;2.70;;;;;;;31.23;33.08;66315.88;5031749;28;20230;-58
2023/08/20 10:07:32;;;;;;;6.10;3.10;;;;;;;31.29;34.40;66325.19;5031792;28;20241;-54
2023/08/20 10:10:00;;;;;;;5.55;4.35;;;;;;;31.21;33.31;66315.72;5031745;28;20221;-56
2023/08/20 10:12:27;;;;;;;3.63;3.05;;;;;;;31.64;34.61;66360.53;5031652;28;20218;-57
2023/08/20 10:14:54;;;;;;;6.03;3.88;;;;;;;31.88;33.42;66387.88;5014081;28;20309;-52
2023/08/20 10:17:21;;;;;;;15.52;8.90;;;;;;;31.20;33.94;66315.16;5014295;28;20217;-53
2023/08/20 10:19:47;;;;;;;14.10;9.00;;;;;;;31.12;34.03;66306.22;5031560;28;20692;-51
2023/08/20 10:22:13;;;;;;;5.45;3.60;;;;;;;31.88;34.19;66390.47;5014119;28;20243;-52
2023/08/20 10:24:48;;;;;;;6.38;3.60;;;;;;;32.23;34.25;66429.00;5014123;28;20498;-52
2023/08/20 10:27:25;;;;;;;7.82;3.90;;;;;;;32.42;33.89;66450.22;5031639;28;20233;-51
2023/08/20 10:29:53;;;;;;;4.00;3.60;;;;;;;32.65;33.11;66475.91;5031395;28;20232;-52
2023/08/20 10:32:19;;;;;;;3.67;3.33;;;;;;;32.86;31.74;66502.00;5031406;28;20222;-54
2023/08/20 10:34:52;;;;;;;10.25;5.88;;;;;;;32.84;31.98;66496.59;5031431;28;20199;-58
2023/08/20 10:37:27;;;;;;;8.23;6.00;;;;;;;32.59;33.31;66471.84;5031378;28;20233;-52
2023/08/20 10:39:58;;;;;;;5.50;4.60;;;;;;;33.02;33.25;66517.28;5013455;28;20715;-54
2023/08/20 10:42:27;;;;;;;4.05;3.47;;;;;;;33.23;33.41;66539.63;5031377;28;20679;-52
2023/08/20 10:44:59;;;;;;;4.70;4.28;;;;;;;33.33;32.67;66553.94;5013487;28;20166;-54
2023/08/20 10:47:25;;;;;;;5.47;4.38;;;;;;;33.33;32.25;66550.78;5031278;28;20210;-51
2023/08/20 10:49:53;;;;;;;5.55;5.05;;;;;;;32.86;32.58;66499.38;5031060;28;20213;-51
2023/08/20 10:52:20;;;;;;;6.38;5.78;;;;;;;32.35;33.13;66442.41;5031027;28;20241;-53
2023/08/20 10:54:49;;;;;;;4.97;4.25;;;;;;;31.98;33.51;66401.09;5031011;28;20206;-52
2023/08/20 10:57:14;;;;;;;3.95;3.55;;;;;;;32.35;33.97;66439.78;5013216;28;20604;-52
2023/08/20 10:59:40;;;;;;;3.72;3.42;;;;;;;32.44;34.23;66452.47;5030990;28;20229;-53
2023/08/20 11:02:14;;;;;;;4.43;4.03;;;;;;;32.82;33.97;66494.91;5030854;28;20214;-51
2023/08/20 11:04:40;;;;;;;8.20;3.72;;;;;;;33.25;33.66;66539.78;5030979;28;20234;-52
2023/08/20 11:07:06;;;;;;;4.28;3.70;;;;;;;33.54;32.90;66574.25;5013159;28;20210;-51
2023/08/20 11:09:31;;;;;;;5.57;3.35;;;;;;;33.58;32.34;66578.72;5030746;28;20197;-52
2023/08/20 11:11:58;;;;;;;4.63;3.67;;;;;;;33.62;32.13;66580.59;5030699;28;20288;-51
2023/08/20 11:14:24;;;;;;;3.92;3.60;;;;;;;33.72;32.01;66594.38;5030894;28;20293;-52
2023/08/20 11:16:50;;;;;;;3.63;3.30;;;;;;;33.90;32.36;66611.88;5030568;28;20217;-52
2023/08/20 11:19:21;;;;;;;3.72;3.42;;;;;;;33.92;31.24;66614.13;5030609;28;20225;-51
2023/08/20 11:21:47;;;;;;;4.03;3.28;;;;;;;34.04;31.84;66630.16;5030700;28;20225;-51
2023/08/20 11:24:13;;;;;;;4.13;3.42;;;;;;;33.66;31.83;66588.22;5030720;28;20252;-51
2023/08/20 11:26:40;;;;;;;4.57;3.80;;;;;;;34.05;31.94;66628.69;5030723;28;20287;-52
2023/08/20 11:29:06;;;;;;;7.07;3.78;;;;;;;34.18;32.15;66643.19;5030655;28;20233;-52
2023/08/20 11:31:33;;;;;;;3.97;3.58;;;;;;;34.26;31.22;66654.75;5029690;28;20276;-51